createdAt,value
2022-11-24T00:01:24.064Z,4.66
2022-11-24T00:04:17.221Z,4.75
2022-11-24T00:06:44.846Z,4.65
2022-11-24T00:09:14.198Z,4.82
2022-11-24T00:11:41.971Z,4.87
2022-11-24T00:14:10.452Z,4.69
2022-11-24T00:17:04.519Z,4.17
2022-11-24T00:19:32.128Z,4.50
2022-11-24T00:21:59.691Z,4.56
2022-11-24T00:24:27.309Z,4.77
2022-11-24T00:26:55.996Z,4.78
2022-11-24T00:29:23.599Z,4.41
2022-11-24T00:31:51.440Z,4.33
2022-11-24T00:34:19.070Z,4.68
2022-11-24T00:36:46.680Z,4.60
2022-11-24T00:39:15.970Z,4.50
2022-11-24T00:41:43.934Z,4.13
2022-11-24T00:44:12.597Z,4.32
2022-11-24T00:46:40.489Z,4.62
2022-11-24T00:49:09.309Z,4.57
2022-11-24T00:51:37.016Z,3.93
2022-11-24T00:54:04.611Z,3.46
2022-11-24T00:56:33.699Z,3.23
2022-11-24T00:59:01.416Z,3.62
2022-11-24T01:01:31.336Z,3.93
2022-11-24T01:04:01.570Z,3.99
2022-11-24T01:06:31.162Z,3.97
2022-11-24T01:08:59.022Z,4.19
2022-11-24T01:11:54.568Z,3.85
2022-11-24T01:14:24.407Z,3.45
2022-11-24T01:16:53.722Z,3.85
2022-11-24T01:19:21.412Z,3.89
2022-11-24T01:21:49.205Z,3.87
2022-11-24T01:24:17.601Z,3.94
2022-11-24T01:26:45.486Z,3.74
2022-11-24T01:29:15.246Z,3.61
2022-11-24T01:31:42.887Z,3.66
2022-11-24T01:34:11.565Z,3.64
2022-11-24T01:36:39.803Z,3.40
2022-11-24T01:39:08.616Z,3.25
2022-11-24T01:41:36.339Z,3.10
2022-11-24T01:44:23.064Z,3.37
2022-11-24T01:46:55.283Z,3.63
2022-11-24T01:49:31.420Z,3.82
2022-11-24T01:52:05.627Z,3.59
2022-11-24T01:54:43.254Z,3.64
2022-11-24T01:57:19.741Z,3.85
2022-11-24T01:59:50.687Z,3.91
2022-11-24T02:02:29.502Z,4.03
2022-11-24T02:05:03.178Z,3.89
2022-11-24T02:07:33.869Z,3.30
2022-11-24T02:10:06.347Z,3.66
2022-11-24T02:12:36.991Z,3.66
2022-11-24T02:15:05.286Z,3.79
2022-11-24T02:17:32.902Z,3.38
2022-11-24T02:20:09.280Z,3.47
2022-11-24T02:22:47.131Z,3.73
2022-11-24T02:25:34.280Z,3.95
2022-11-24T02:28:07.308Z,3.25
2022-11-24T02:30:37.430Z,2.89
2022-11-24T02:33:05.240Z,3.15
2022-11-24T02:35:34.429Z,3.40
2022-11-24T02:38:02.029Z,3.64
2022-11-24T02:40:31.212Z,3.46
2022-11-24T02:43:04.688Z,3.45
2022-11-24T02:45:32.352Z,3.51
2022-11-24T02:47:59.976Z,3.77
2022-11-24T02:50:27.741Z,3.45
2022-11-24T02:52:56.456Z,3.47
2022-11-24T02:55:24.047Z,3.94
2022-11-24T02:57:51.740Z,3.54
2022-11-24T03:00:19.429Z,3.50
2022-11-24T03:02:47.437Z,3.38
2022-11-24T03:05:15.184Z,3.31
2022-11-24T03:07:42.898Z,3.46
2022-11-24T03:10:11.640Z,3.37
2022-11-24T03:12:39.287Z,3.14
2022-11-24T03:15:11.947Z,2.94
2022-11-24T03:17:39.594Z,2.80
2022-11-24T03:20:08.973Z,2.97
2022-11-24T03:22:37.468Z,3.16
2022-11-24T03:25:05.485Z,2.88
2022-11-24T03:27:33.083Z,2.99
2022-11-24T03:30:00.671Z,3.11
2022-11-24T03:32:29.751Z,3.17
2022-11-24T03:34:57.326Z,3.00
2022-11-24T03:37:25.038Z,3.05
2022-11-24T03:39:52.683Z,3.02
2022-11-24T03:42:23.036Z,3.20
2022-11-24T03:44:50.748Z,3.22
2022-11-24T03:47:18.328Z,3.01
2022-11-24T03:49:46.041Z,2.94
2022-11-24T03:52:13.707Z,2.99
2022-11-24T03:54:42.608Z,3.19
2022-11-24T03:57:10.176Z,3.35
2022-11-24T03:59:39.361Z,3.10
2022-11-24T04:02:08.002Z,3.07
2022-11-24T04:04:39.752Z,2.96
2022-11-24T04:07:07.387Z,3.01
2022-11-24T04:09:34.991Z,2.98
2022-11-24T04:12:20.859Z,2.83
2022-11-24T04:14:48.565Z,2.85
2022-11-24T04:17:16.242Z,2.88
2022-11-24T04:19:43.902Z,2.71
2022-11-24T04:22:12.645Z,2.74
2022-11-24T04:24:40.289Z,2.41
2022-11-24T04:27:08.987Z,2.69
2022-11-24T04:29:36.600Z,2.90
2022-11-24T04:32:06.610Z,2.80
2022-11-24T04:34:34.448Z,2.87
2022-11-24T04:37:02.356Z,2.74
2022-11-24T04:39:30.093Z,2.65
2022-11-24T04:41:58.429Z,2.87
2022-11-24T04:44:26.533Z,2.78
2022-11-24T04:46:54.260Z,2.78
2022-11-24T04:49:21.969Z,2.87
2022-11-24T04:51:49.824Z,2.75
2022-11-24T04:54:17.437Z,3.00
2022-11-24T04:56:45.124Z,3.07
2022-11-24T05:03:18.084Z,2.90
2022-11-24T05:05:47.730Z,2.75
2022-11-24T05:08:15.249Z,2.83
2022-11-24T05:10:43.165Z,2.72
2022-11-24T05:13:12.675Z,2.66
2022-11-24T05:15:41.649Z,2.84
2022-11-24T05:18:13.532Z,2.82
2022-11-24T05:20:48.194Z,2.95
2022-11-24T05:23:16.158Z,2.75
2022-11-24T05:25:47.642Z,2.88
2022-11-24T05:28:16.211Z,2.97
2022-11-24T05:30:44.582Z,2.68
2022-11-24T05:33:23.104Z,2.11
2022-11-24T05:35:50.952Z,1.75
2022-11-24T05:38:18.826Z,1.91
2022-11-24T05:40:46.616Z,2.15
2022-11-24T05:43:16.856Z,2.44
2022-11-24T05:52:04.622Z,2.24
2022-11-24T05:54:38.996Z,2.40
2022-11-24T05:57:09.056Z,2.55
2022-11-24T05:59:43.865Z,2.79
2022-11-24T06:02:12.900Z,2.69
2022-11-24T06:17:21.271Z,2.58
2022-11-24T06:19:50.279Z,2.87
2022-11-24T06:22:19.359Z,2.56
2022-11-24T06:24:51.862Z,1.71
2022-11-24T06:27:22.550Z,1.83
2022-11-24T06:29:50.233Z,2.00
2022-11-24T06:32:34.444Z,2.26
2022-11-24T06:35:02.415Z,2.47
2022-11-24T06:37:30.039Z,1.96
2022-11-24T06:39:57.595Z,1.57
2022-11-24T06:42:26.184Z,2.22
2022-11-24T06:44:53.804Z,2.53
2022-11-24T06:47:21.482Z,2.62
2022-11-24T06:49:49.122Z,2.71
2022-11-24T06:52:16.773Z,2.93
2022-11-24T06:54:44.491Z,2.31
2022-11-24T06:57:12.188Z,2.55
2022-11-24T06:59:39.853Z,2.88
2022-11-24T07:02:10.033Z,3.13
2022-11-24T07:04:37.797Z,3.29
2022-11-24T07:07:05.383Z,3.51
2022-11-24T07:09:33.083Z,3.51
2022-11-24T07:12:02.472Z,3.29
2022-11-24T07:14:30.050Z,3.38
2022-11-24T07:16:57.699Z,3.41
2022-11-24T07:19:51.428Z,3.61
2022-11-24T07:22:18.964Z,3.73
2022-11-24T07:24:46.651Z,3.75
2022-11-24T07:27:14.281Z,3.52
2022-11-24T07:29:41.863Z,3.72
2022-11-24T07:32:09.429Z,3.46
2022-11-24T07:34:37.240Z,3.70
2022-11-24T07:37:05.035Z,3.85
2022-11-24T07:39:32.721Z,3.84
2022-11-24T07:42:00.681Z,3.68
2022-11-24T07:44:28.300Z,3.78
2022-11-24T07:46:57.223Z,3.84
2022-11-24T07:49:24.787Z,4.01
2022-11-24T07:51:54.450Z,4.15
2022-11-24T07:54:22.055Z,4.32
2022-11-24T07:56:49.851Z,4.45
2022-11-24T07:59:17.595Z,4.47
2022-11-24T08:01:45.327Z,4.52
2022-11-24T08:04:39.378Z,4.45
2022-11-24T08:07:07.049Z,4.43
2022-11-24T08:10:00.210Z,4.41
2022-11-24T08:12:27.864Z,4.68
2022-11-24T08:14:57.564Z,4.75
2022-11-24T08:17:25.728Z,4.83
2022-11-24T08:19:53.347Z,4.95
2022-11-24T08:22:21.249Z,4.92
2022-11-24T08:24:51.567Z,5.07
2022-11-24T08:27:19.708Z,5.19
2022-11-24T08:29:47.324Z,5.25
2022-11-24T08:32:20.588Z,6.20
2022-11-24T08:34:49.913Z,7.59
2022-11-24T08:37:18.652Z,9.04
2022-11-24T08:39:46.303Z,10.37
2022-11-24T08:42:13.912Z,11.51
2022-11-24T08:44:41.620Z,10.87
2022-11-24T08:47:09.383Z,11.88
2022-11-24T08:49:37.018Z,12.11
2022-11-24T08:52:04.885Z,11.49
2022-11-24T08:54:32.966Z,12.40
2022-11-24T08:57:00.845Z,13.59
2022-11-24T08:59:28.331Z,13.62
2022-11-24T09:01:56.016Z,13.45
2022-11-24T09:04:23.636Z,13.47
2022-11-24T09:06:51.070Z,13.17
2022-11-24T09:09:18.623Z,12.14
2022-11-24T09:11:46.087Z,12.56
2022-11-24T09:14:13.548Z,13.17
2022-11-24T09:16:41.163Z,12.87
2022-11-24T09:19:08.634Z,13.34
2022-11-24T09:21:40.287Z,12.48
2022-11-24T09:24:08.674Z,12.45
2022-11-24T09:26:39.773Z,12.37
2022-11-24T09:29:11.225Z,11.96
2022-11-24T09:31:39.594Z,12.53
2022-11-24T09:34:09.214Z,12.70
2022-11-24T09:36:36.915Z,13.18
2022-11-24T09:39:04.906Z,13.57
2022-11-24T09:42:06.553Z,14.27
2022-11-24T09:45:07.394Z,14.99
2022-11-24T09:47:49.161Z,14.72
2022-11-24T09:50:25.573Z,15.36
2022-11-24T09:53:16.865Z,15.21
2022-11-24T09:55:53.625Z,15.57
2022-11-24T09:58:33.070Z,15.79
2022-11-24T10:01:04.634Z,15.54
2022-11-24T10:03:49.157Z,15.67
2022-11-24T10:06:24.774Z,15.80
2022-11-24T10:09:13.318Z,14.83
2022-11-24T10:11:58.881Z,14.03
2022-11-24T10:15:15.734Z,13.18
2022-11-24T10:18:16.737Z,13.69
2022-11-24T10:21:05.980Z,13.96
2022-11-24T10:23:45.723Z,13.82
2022-11-24T10:26:21.022Z,13.99
2022-11-24T10:28:55.386Z,13.93
2022-11-24T10:31:28.916Z,13.57
2022-11-24T10:34:00.693Z,13.69
2022-11-24T10:37:12.629Z,13.60
2022-11-24T10:39:40.145Z,13.74
2022-11-24T10:42:10.338Z,13.62
2022-11-24T10:44:39.311Z,13.54
2022-11-24T10:47:18.452Z,13.31
2022-11-24T10:50:00.215Z,13.15
2022-11-24T10:52:31.612Z,13.41
2022-11-24T10:55:01.892Z,13.25
2022-11-24T10:57:40.467Z,13.29
2022-11-24T11:00:19.861Z,12.74
2022-11-24T11:02:49.320Z,13.18
2022-11-24T11:05:42.161Z,13.32
2022-11-24T11:08:14.100Z,12.97
2022-11-24T11:10:43.530Z,13.10
2022-11-24T11:13:24.172Z,12.65
2022-11-24T11:15:52.331Z,12.82
2022-11-24T11:18:21.247Z,12.38
2022-11-24T11:20:56.479Z,12.39
2022-11-24T11:23:28.603Z,12.68
2022-11-24T11:26:27.913Z,12.71
2022-11-24T11:34:47.219Z,12.56
2022-11-24T11:37:15.988Z,12.87
2022-11-24T11:39:48.879Z,12.90
2022-11-24T11:42:45.313Z,13.00
2022-11-24T11:45:18.313Z,12.92
2022-11-24T11:48:32.482Z,12.94
2022-11-24T11:51:25.906Z,12.99
2022-11-24T11:54:20.099Z,12.99
2022-11-24T11:56:53.000Z,13.03
2022-11-24T11:59:30.452Z,12.97
2022-11-24T12:02:36.686Z,12.91
2022-11-24T12:05:25.072Z,12.64
2022-11-24T12:08:17.545Z,12.86
2022-11-24T12:10:59.568Z,12.86
2022-11-24T12:13:49.066Z,12.71
2022-11-24T12:17:04.414Z,12.87
2022-11-24T12:20:03.869Z,12.90
2022-11-24T12:22:46.377Z,13.10
2022-11-24T12:25:22.867Z,12.57
2022-11-24T12:28:09.805Z,12.93
2022-11-24T12:31:01.120Z,12.91
2022-11-24T12:33:34.711Z,12.60
2022-11-24T12:36:24.254Z,12.56
2022-11-24T12:39:04.516Z,12.57
2022-11-24T12:41:42.399Z,12.67
2022-11-24T12:44:47.409Z,12.60
2022-11-24T12:47:38.468Z,12.84
2022-11-24T12:50:11.614Z,12.80
2022-11-24T12:52:44.221Z,12.82
2022-11-24T12:55:21.041Z,12.79
2022-11-24T12:58:20.485Z,12.82
2022-11-24T13:01:18.646Z,12.95
2022-11-24T13:03:55.187Z,12.86
2022-11-24T13:06:35.318Z,12.94
2022-11-24T13:09:13.315Z,12.82
2022-11-24T13:11:49.101Z,12.74
2022-11-24T13:14:16.751Z,12.58
2022-11-24T13:17:28.109Z,12.79
2022-11-24T13:19:44.425Z,12.86
2022-11-24T13:22:17.130Z,12.96
2022-11-24T13:24:45.315Z,12.54
2022-11-24T13:27:15.710Z,12.65
2022-11-24T13:29:45.385Z,12.72
2022-11-24T13:32:12.914Z,12.63
2022-11-24T13:34:40.449Z,12.64
2022-11-24T13:37:34.968Z,12.62
2022-11-24T13:40:23.418Z,12.66
2022-11-24T13:42:57.412Z,12.74
2022-11-24T13:45:40.353Z,12.81
2022-11-24T13:48:20.653Z,12.69
2022-11-24T13:50:51.764Z,12.74
2022-11-24T13:53:36.381Z,12.71
2022-11-24T13:56:23.998Z,12.66
2022-11-24T13:58:58.702Z,12.48
2022-11-24T14:01:35.742Z,12.59
2022-11-24T14:04:43.367Z,12.55
2022-11-24T14:07:10.316Z,12.55
2022-11-24T14:09:44.873Z,12.63
2022-11-24T14:12:22.070Z,12.61
2022-11-24T14:14:51.361Z,12.50
2022-11-24T14:17:23.356Z,12.36
2022-11-24T14:19:53.506Z,12.35
2022-11-24T14:22:22.575Z,12.17
2022-11-24T14:25:33.271Z,12.11
2022-11-24T14:28:01.122Z,12.01
2022-11-24T14:30:28.737Z,11.88
2022-11-24T14:33:01.547Z,11.77
2022-11-24T14:35:34.470Z,11.70
2022-11-24T14:38:04.663Z,11.75
2022-11-24T14:40:41.157Z,11.75
2022-11-24T14:43:22.111Z,11.53
2022-11-24T14:45:58.405Z,11.55
2022-11-24T14:48:31.682Z,11.47
2022-11-24T14:51:06.768Z,11.53
2022-11-24T14:53:35.522Z,11.49
2022-11-24T14:56:21.770Z,11.25
2022-11-24T14:58:49.542Z,11.26
2022-11-24T15:01:33.190Z,11.11
2022-11-24T15:07:27.136Z,10.82
2022-11-24T15:10:00.139Z,10.73
2022-11-24T15:12:37.992Z,10.65
2022-11-24T15:15:08.096Z,10.56
2022-11-24T15:17:35.582Z,10.41
2022-11-24T15:20:10.793Z,10.32
2022-11-24T15:22:43.746Z,10.33
2022-11-24T15:25:32.489Z,10.14
2022-11-24T15:28:00.904Z,9.99
2022-11-24T15:30:29.406Z,9.99
2022-11-24T15:32:58.693Z,10.00
2022-11-24T15:35:30.707Z,10.02
2022-11-24T15:37:58.862Z,9.94
2022-11-24T15:40:26.271Z,9.84
2022-11-24T15:42:59.602Z,9.87
2022-11-24T15:45:30.923Z,9.57
2022-11-24T15:47:58.340Z,9.44
2022-11-24T15:50:25.853Z,9.49
2022-11-24T15:52:53.309Z,9.64
2022-11-24T15:55:22.448Z,9.35
2022-11-24T15:57:50.049Z,9.33
2022-11-24T16:00:20.023Z,9.20
2022-11-24T16:02:48.782Z,9.20
2022-11-24T16:05:17.666Z,9.17
2022-11-24T16:07:45.292Z,9.22
2022-11-24T16:10:23.176Z,9.29
2022-11-24T16:12:50.638Z,9.09
2022-11-24T16:15:18.098Z,8.87
2022-11-24T16:17:45.545Z,8.61
2022-11-24T16:20:13.072Z,8.70
2022-11-24T16:22:40.721Z,8.67
2022-11-24T16:25:08.758Z,8.57
2022-11-24T16:27:36.599Z,8.53
2022-11-24T16:30:06.758Z,8.45
2022-11-24T16:32:35.038Z,8.40
2022-11-24T16:35:02.754Z,8.26
2022-11-24T16:37:30.275Z,7.97
2022-11-24T16:39:58.524Z,7.80
2022-11-24T16:42:25.984Z,7.70
2022-11-24T16:44:53.515Z,7.57
2022-11-24T16:47:21.211Z,7.57
2022-11-24T16:49:49.271Z,7.52
2022-11-24T16:52:17.112Z,7.42
2022-11-24T16:54:46.540Z,7.57
2022-11-24T16:57:15.309Z,7.60
2022-11-24T16:59:43.587Z,7.83
2022-11-24T17:02:13.012Z,7.71
2022-11-24T17:04:43.194Z,7.62
2022-11-24T17:07:10.823Z,7.19
2022-11-24T17:09:40.842Z,7.45
2022-11-24T17:12:08.406Z,7.55
2022-11-24T17:14:37.126Z,7.65
2022-11-24T17:17:04.869Z,7.25
2022-11-24T17:19:32.677Z,7.28
2022-11-24T17:22:00.285Z,7.31
2022-11-24T17:24:27.865Z,7.44
2022-11-24T17:26:55.384Z,7.34
2022-11-24T17:29:22.932Z,7.32
2022-11-24T17:31:50.506Z,7.42
2022-11-24T17:34:18.168Z,7.45
2022-11-24T17:36:46.165Z,7.46
2022-11-24T17:39:13.688Z,7.44
2022-11-24T17:41:41.341Z,7.27
2022-11-24T17:44:10.718Z,7.38
2022-11-24T17:46:39.209Z,7.30
2022-11-24T17:49:13.187Z,7.21
2022-11-24T17:51:40.701Z,7.16
2022-11-24T17:54:39.153Z,7.09
2022-11-24T17:56:55.670Z,7.16
2022-11-24T17:59:23.070Z,7.08
2022-11-24T18:01:50.546Z,7.18
2022-11-24T18:04:18.066Z,7.13
2022-11-24T18:06:46.203Z,7.21
2022-11-24T18:09:13.769Z,6.93
2022-11-24T18:11:41.217Z,6.93
2022-11-24T18:14:09.968Z,7.11
2022-11-24T18:16:37.561Z,7.15
2022-11-24T18:19:10.645Z,6.92
2022-11-24T18:21:40.436Z,6.57
2022-11-24T18:24:09.973Z,6.57
2022-11-24T18:26:38.397Z,6.60
2022-11-24T18:29:06.178Z,6.78
2022-11-24T18:31:35.635Z,6.90
2022-11-24T18:34:05.444Z,6.76
2022-11-24T18:36:33.964Z,6.70
2022-11-24T18:39:06.968Z,6.62
2022-11-24T18:41:35.468Z,6.65
2022-11-24T18:44:07.681Z,6.80
2022-11-24T18:46:35.927Z,6.70
2022-11-24T18:49:03.855Z,6.68
2022-11-24T18:51:31.461Z,6.55
2022-11-24T18:53:58.887Z,6.47
2022-11-24T18:56:27.049Z,6.38
2022-11-24T18:58:56.163Z,6.16
2022-11-24T19:01:26.721Z,6.23
2022-11-24T19:03:59.522Z,6.12
2022-11-24T19:06:34.838Z,5.92
2022-11-24T19:09:05.975Z,6.07
2022-11-24T19:11:37.089Z,5.99
2022-11-24T19:14:07.266Z,6.09
2022-11-24T19:16:35.306Z,6.14
2022-11-24T19:19:03.742Z,5.84
2022-11-24T19:21:34.104Z,5.87
2022-11-24T19:24:05.220Z,6.02
2022-11-24T19:26:35.249Z,6.05
2022-11-24T19:29:04.043Z,5.97
2022-11-24T19:31:31.847Z,5.94
2022-11-24T19:33:59.854Z,6.02
2022-11-24T19:36:27.405Z,5.84
2022-11-24T19:38:56.818Z,5.70
2022-11-24T19:41:29.643Z,5.70
2022-11-24T19:43:58.493Z,5.71
2022-11-24T19:46:28.064Z,5.59
2022-11-24T19:48:57.175Z,5.62
2022-11-24T19:51:27.327Z,5.56
2022-11-24T19:53:54.784Z,5.60
2022-11-24T19:56:25.005Z,5.82
2022-11-24T19:58:54.502Z,5.97
2022-11-24T20:01:26.225Z,6.04
2022-11-24T20:04:00.312Z,6.33
2022-11-24T20:06:31.054Z,6.35
2022-11-24T20:09:00.573Z,6.38
2022-11-24T20:11:28.906Z,6.35
2022-11-24T20:13:56.999Z,6.19
2022-11-24T20:16:30.042Z,5.93
2022-11-24T20:19:00.039Z,5.80
2022-11-24T20:21:31.541Z,5.83
2022-11-24T20:24:01.861Z,6.01
2022-11-24T20:26:35.262Z,5.50
2022-11-24T20:29:04.088Z,5.03
2022-11-24T20:31:36.033Z,5.18
2022-11-24T20:34:05.231Z,5.49
2022-11-24T20:36:34.885Z,5.47
2022-11-24T20:39:05.713Z,5.47
2022-11-24T20:41:35.386Z,5.42
2022-11-24T20:44:07.321Z,5.38
2022-11-24T20:46:37.656Z,5.40
2022-11-24T20:49:06.793Z,5.57
2022-11-24T20:51:37.163Z,5.55
2022-11-24T20:54:07.534Z,5.62
2022-11-24T20:56:38.254Z,5.45
2022-11-24T20:59:05.749Z,5.36
2022-11-24T21:01:38.832Z,5.46
2022-11-24T21:04:09.223Z,5.41
2022-11-24T21:06:37.934Z,5.46
2022-11-24T21:09:08.007Z,5.58
2022-11-24T21:11:36.827Z,5.53
2022-11-24T21:14:04.957Z,5.42
2022-11-24T21:16:37.492Z,5.59
2022-11-24T21:19:17.699Z,5.60
2022-11-24T21:21:54.290Z,5.39
2022-11-24T21:24:21.906Z,5.28
2022-11-24T21:26:52.657Z,5.37
2022-11-24T21:29:23.677Z,5.12
2022-11-24T21:31:51.493Z,5.22
2022-11-24T21:34:19.477Z,5.28
2022-11-24T21:36:47.480Z,5.22
2022-11-24T21:39:15.562Z,5.31
2022-11-24T21:41:43.431Z,5.55
2022-11-24T21:44:12.935Z,5.59
2022-11-24T21:46:46.091Z,5.52
2022-11-24T21:49:18.579Z,5.62
2022-11-24T21:51:46.111Z,5.55
2022-11-24T21:54:13.659Z,5.62
2022-11-24T21:56:41.229Z,5.50
2022-11-24T21:59:08.752Z,5.49
2022-11-24T22:01:36.301Z,5.38
2022-11-24T22:04:03.962Z,5.41
2022-11-24T22:06:33.337Z,5.50
2022-11-24T22:09:00.961Z,5.70
2022-11-24T22:11:28.393Z,5.57
2022-11-24T22:13:55.927Z,5.49
2022-11-24T22:16:24.849Z,5.40
2022-11-24T22:18:52.468Z,5.43
2022-11-24T22:21:23.906Z,5.41
2022-11-24T22:23:52.640Z,5.58
2022-11-24T22:26:22.224Z,5.70
2022-11-24T22:28:50.224Z,5.58
2022-11-24T22:31:20.482Z,5.62
2022-11-24T22:33:49.095Z,5.57
2022-11-24T22:36:20.708Z,5.81
2022-11-24T22:38:52.416Z,6.13
2022-11-24T22:41:20.396Z,6.36
2022-11-24T22:43:48.149Z,6.31
2022-11-24T22:46:18.252Z,6.24
2022-11-24T22:48:47.596Z,6.10
2022-11-24T22:51:17.410Z,5.88
2022-11-24T22:53:49.346Z,5.31
2022-11-24T22:56:17.475Z,5.59
2022-11-24T22:58:45.359Z,5.66
2022-11-24T23:01:15.423Z,5.71
2022-11-24T23:03:44.144Z,5.63
2022-11-24T23:06:18.218Z,5.69
2022-11-24T23:08:46.157Z,5.85
2022-11-24T23:11:25.881Z,5.85
2022-11-24T23:13:58.438Z,5.82
2022-11-24T23:16:26.405Z,5.60
2022-11-24T23:18:54.206Z,5.60
2022-11-24T23:21:24.375Z,5.58
2022-11-24T23:23:52.784Z,5.56
2022-11-24T23:26:23.456Z,5.25
2022-11-24T23:28:51.561Z,5.19
2022-11-24T23:31:21.667Z,5.44
2022-11-24T23:33:49.536Z,5.33
2022-11-24T23:36:20.182Z,5.55
2022-11-24T23:38:48.489Z,5.46
2022-11-24T23:41:21.441Z,5.59
2022-11-24T23:43:49.283Z,5.54
2022-11-24T23:46:20.646Z,5.39
2022-11-24T23:48:49.568Z,5.43
2022-11-24T23:51:19.394Z,5.47
2022-11-24T23:53:47.673Z,5.22
2022-11-24T23:56:22.736Z,5.22
2022-11-24T23:58:50.447Z,5.12
